Terminal Aerodrome Forecast
Issued by NWS

Home | Current Version | Previous Version | Text Only | Print | Product List | Glossary Off
Versions: 1 2 3 4 5 6 7 8 9 10 11 12 13 14 15 16 17 18 19 20

000
FTUS43 KTOP 261741
TAFMHK
TAF
KMHK 261741Z 2618/2718 14006KT P6SM VCSH SCT010 OVC018
     FM270000 15007KT P6SM SCT020 OVC100
     FM270800 19005KT P6SM VCTS OVC030CB
     FM271300 20006KT P6SM SCT020 BKN040=

USA.gov is the U.S. government's official web portal to all federal, state and local government web resources and services.